Time;durP1;ratioP1;P1;durP2;ratioP2;P2;SDS_P1;SDS_P2;PMS_P1;PMS_P2;Temp;Humidity;BMP_temperature;BMP_pressure;BME280_temperature;BME280_humidity;BME280_pressure;Samples;Min_cycle;Max_cycle;Signal;HPM_P1;HPM_P2
2023/01/02 00:00:18;;;;;;;54.10;32.63;;;;;;;6.67;69.23;96000.34;4181339;28;20084;-73
2023/01/02 00:02:22;;;;;;;56.63;32.47;;;;;;;6.70;68.82;96002.72;4181144;28;20059;-74
2023/01/02 00:04:23;;;;;;;63.42;33.83;;;;;;;6.68;68.91;95996.78;4177742;28;20137;-75
2023/01/02 00:06:25;;;;;;;59.15;31.38;;;;;;;6.72;68.95;96000.84;4178046;28;20072;-78
2023/01/02 00:08:27;;;;;;;57.53;33.13;;;;;;;6.71;68.80;95994.81;4162924;28;20168;-72
2023/01/02 00:10:29;;;;;;;49.92;31.55;;;;;;;6.72;68.73;95998.25;4173088;28;20128;-75
2023/01/02 00:12:30;;;;;;;51.35;31.08;;;;;;;6.70;68.74;95989.72;4167983;28;20053;-76
2023/01/02 00:14:32;;;;;;;52.45;31.58;;;;;;;6.75;68.72;95991.09;4163411;28;20156;-76
2023/01/02 00:16:34;;;;;;;55.17;33.40;;;;;;;6.71;68.50;95991.38;4180604;28;20088;-76
2023/01/02 00:18:36;;;;;;;52.22;30.92;;;;;;;6.64;68.92;95988.34;4180245;28;20390;-74
2023/01/02 00:20:37;;;;;;;59.58;35.03;;;;;;;6.61;68.84;95992.94;4178172;28;20323;-77
2023/01/02 00:22:39;;;;;;;56.80;32.38;;;;;;;6.51;69.07;95985.72;4165231;28;20053;-78
2023/01/02 00:24:41;;;;;;;55.75;32.33;;;;;;;6.50;69.22;95989.28;4164050;28;20404;-71
2023/01/02 00:26:43;;;;;;;52.78;33.85;;;;;;;6.34;69.22;95988.63;4164160;28;20046;-76
2023/01/02 00:28:44;;;;;;;57.78;33.67;;;;;;;6.19;70.13;95987.84;4163863;28;20449;-77
2023/01/02 00:30:46;;;;;;;59.40;33.60;;;;;;;6.20;70.41;95992.16;4171015;28;20511;-76
2023/01/02 00:32:48;;;;;;;58.72;34.15;;;;;;;6.14;70.22;95990.75;4171108;28;20489;-75
2023/01/02 00:34:50;;;;;;;60.50;33.92;;;;;;;6.10;70.91;95991.06;4164328;28;20083;-77
2023/01/02 00:36:51;;;;;;;57.38;33.25;;;;;;;6.14;70.42;95990.75;4162812;28;20050;-78
2023/01/02 00:38:55;;;;;;;52.70;33.13;;;;;;;6.21;70.03;95992.97;4180737;28;20076;-75
2023/01/02 00:40:57;;;;;;;54.03;32.33;;;;;;;6.27;69.63;95995.19;4160510;28;20176;-74
2023/01/02 00:42:58;;;;;;;53.88;33.00;;;;;;;6.28;69.46;95992.47;4179355;28;20083;-74
2023/01/02 00:45:00;;;;;;;51.30;32.08;;;;;;;6.32;69.42;95985.28;4164230;28;20095;-72
2023/01/02 00:47:02;;;;;;;52.83;30.05;;;;;;;6.32;69.11;95991.34;4170522;28;20049;-74
2023/01/02 00:49:04;;;;;;;48.92;31.10;;;;;;;6.25;68.93;95987.47;4170947;28;20053;-73
2023/01/02 00:51:06;;;;;;;55.80;32.60;;;;;;;6.21;69.51;95988.59;4179127;28;20053;-75
2023/01/02 00:53:08;;;;;;;63.13;35.67;;;;;;;6.23;69.18;95993.72;4175485;28;20045;-76
2023/01/02 00:55:10;;;;;;;55.47;33.60;;;;;;;6.21;69.32;95999.00;4153231;28;20053;-75
2023/01/02 00:57:12;;;;;;;53.72;31.58;;;;;;;6.25;69.73;95997.03;4162756;28;20061;-75
2023/01/02 00:59:13;;;;;;;50.78;33.47;;;;;;;6.28;69.46;96000.28;4170575;28;20131;-74
2023/01/02 01:01:15;;;;;;;53.85;33.25;;;;;;;6.33;69.06;95994.78;4179085;28;20512;-72
2023/01/02 01:03:17;;;;;;;52.88;31.25;;;;;;;6.36;68.84;95997.16;4173996;28;20061;-74
2023/01/02 01:05:19;;;;;;;50.65;30.63;;;;;;;6.37;68.69;96001.44;4174537;28;20117;-74
2023/01/02 01:07:21;;;;;;;55.15;31.23;;;;;;;6.30;68.70;95998.41;4167585;28;20085;-77
2023/01/02 01:09:22;;;;;;;46.58;30.48;;;;;;;6.28;68.72;95996.81;4167117;28;20476;-74
2023/01/02 01:11:24;;;;;;;54.80;32.60;;;;;;;6.15;68.71;95997.66;4172011;28;20260;-76
2023/01/02 01:13:26;;;;;;;60.17;36.33;;;;;;;5.88;69.64;95987.22;4156663;28;20065;-74
2023/01/02 01:15:28;;;;;;;66.28;39.28;;;;;;;5.89;70.24;95988.91;4177269;28;20455;-74
2023/01/02 01:17:31;;;;;;;66.43;38.40;;;;;;;5.89;70.20;95980.25;4179432;28;20052;-75
2023/01/02 01:19:34;;;;;;;77.82;42.10;;;;;;;5.77;70.34;95986.25;4178020;28;20539;-73
2023/01/02 01:21:36;;;;;;;76.80;43.45;;;;;;;5.65;71.12;95988.69;4179676;28;20119;-76
2023/01/02 01:23:39;;;;;;;82.38;47.70;;;;;;;5.36;71.72;95990.53;4165709;28;20398;-75
2023/01/02 01:25:41;;;;;;;88.35;50.03;;;;;;;5.05;73.02;95988.97;4179245;28;20056;-75
2023/01/02 01:27:42;;;;;;;110.03;62.30;;;;;;;4.92;73.60;95987.13;4171369;28;20053;-76
2023/01/02 01:29:44;;;;;;;134.07;70.38;;;;;;;4.79;74.57;95993.16;4175433;28;20052;-76
2023/01/02 01:31:46;;;;;;;112.45;63.47;;;;;;;4.91;75.34;95982.03;4178544;28;20063;-74
2023/01/02 01:33:48;;;;;;;99.18;56.03;;;;;;;5.13;74.85;95990.16;4174879;28;20095;-75
2023/01/02 01:35:50;;;;;;;104.25;60.40;;;;;;;5.29;73.74;95990.09;4178499;28;20060;-75
2023/01/02 01:37:52;;;;;;;130.13;70.32;;;;;;;5.47;73.31;95984.66;4179526;28;20133;-75
2023/01/02 01:39:53;;;;;;;127.15;73.97;;;;;;;5.61;72.63;95979.41;4178998;28;20045;-76
2023/01/02 01:42:01;;;;;;;143.88;78.95;;;;;;;5.72;72.34;95978.72;4173286;28;20053;-75
2023/01/02 01:44:41;;;;;;;132.07;74.93;;;;;;;5.82;72.21;95978.97;4178360;28;20049;-75
2023/01/02 01:46:45;;;;;;;116.28;68.78;;;;;;;5.91;71.77;95981.81;4156814;28;20136;-74
2023/01/02 01:48:50;;;;;;;111.15;65.80;;;;;;;5.96;71.60;95981.56;4156377;28;20053;-75
2023/01/02 01:50:52;;;;;;;102.57;58.15;;;;;;;5.98;71.03;95977.09;4179141;28;20060;-75
2023/01/02 01:53:01;;;;;;;98.97;57.10;;;;;;;5.94;70.55;95975.59;4178439;28;20110;-75
2023/01/02 01:55:20;;;;;;;81.80;49.38;;;;;;;5.99;70.52;95978.75;4166089;28;20485;-77
2023/01/02 01:57:34;;;;;;;82.07;52.03;;;;;;;5.89;70.69;95973.31;4162262;28;20061;-76
2023/01/02 01:59:36;;;;;;;91.45;51.58;;;;;;;5.87;70.24;95969.97;4164854;28;20057;-76
2023/01/02 02:01:39;;;;;;;94.95;52.83;;;;;;;5.88;70.86;95974.22;4176409;28;20057;-78
2023/01/02 02:03:42;;;;;;;83.78;50.08;;;;;;;5.87;70.50;95967.38;4161085;28;20061;-73
2023/01/02 02:05:45;;;;;;;78.55;48.00;;;;;;;5.88;70.11;95963.00;4161777;28;20527;-76
2023/01/02 02:08:05;;;;;;;67.25;38.80;;;;;;;5.86;70.52;95960.47;4144886;28;20129;-75
2023/01/02 02:10:08;;;;;;;61.30;38.35;;;;;;;5.82;70.80;95959.00;4166587;28;20080;-75
2023/01/02 02:12:10;;;;;;;61.90;37.05;;;;;;;5.82;70.49;95969.41;4171020;28;20053;-75
2023/01/02 02:14:12;;;;;;;55.00;35.17;;;;;;;5.82;70.84;95960.78;4174144;28;20053;-76
2023/01/02 02:16:14;;;;;;;52.80;33.80;;;;;;;5.87;70.49;95962.16;4163392;28;20083;-74
2023/01/02 02:18:30;;;;;;;49.47;30.58;;;;;;;5.87;69.89;95962.16;4180784;28;20136;-75
2023/01/02 02:20:45;;;;;;;49.25;28.77;;;;;;;5.91;70.01;95963.59;4154546;28;20058;-75
2023/01/02 02:23:05;;;;;;;46.95;28.30;;;;;;;5.97;69.93;95965.03;4150111;28;20066;-73
2023/01/02 02:25:19;;;;;;;47.88;29.98;;;;;;;5.95;69.59;95970.31;4179270;28;20063;-75
2023/01/02 02:27:31;;;;;;;53.53;33.83;;;;;;;5.94;69.39;95968.66;4182117;28;20060;-75
2023/01/02 02:30:01;;;;;;;48.55;30.17;;;;;;;5.90;69.67;95963.72;4164910;28;20065;-76
2023/01/02 02:32:23;;;;;;;53.75;32.97;;;;;;;5.88;69.02;95973.41;4163071;28;20463;-74
2023/01/02 02:34:42;;;;;;;48.67;30.90;;;;;;;5.85;69.92;95964.03;4133729;28;20050;-75
2023/01/02 02:36:57;;;;;;;51.42;31.45;;;;;;;5.94;69.68;95971.25;4170799;28;20049;-74
2023/01/02 02:39:02;;;;;;;49.88;31.17;;;;;;;5.99;69.86;95973.56;4159643;28;20053;-74
2023/01/02 02:41:06;;;;;;;50.15;30.35;;;;;;;6.01;69.56;95966.50;4179258;28;20057;-75
2023/01/02 02:43:27;;;;;;;58.42;33.40;;;;;;;6.00;69.13;95967.44;4176347;28;20053;-74
2023/01/02 02:45:45;;;;;;;49.85;32.42;;;;;;;5.98;68.81;95965.84;4163667;28;20127;-73
2023/01/02 02:48:14;;;;;;;52.70;32.33;;;;;;;6.00;68.90;95967.44;4156775;28;20430;-75
2023/01/02 02:50:24;;;;;;;57.83;33.30;;;;;;;6.01;69.05;95963.88;4172483;28;20472;-74
2023/01/02 02:52:37;;;;;;;52.88;34.22;;;;;;;5.99;68.37;95960.56;4152216;28;20057;-76
2023/01/02 02:54:44;;;;;;;50.47;31.35;;;;;;;6.01;68.47;95955.25;4150292;28;20647;-75
2023/01/02 02:56:47;;;;;;;48.80;30.10;;;;;;;5.95;68.71;95953.88;4176281;28;20052;-74
2023/01/02 02:58:49;;;;;;;42.80;25.67;;;;;;;5.91;68.34;95941.97;4173310;28;20409;-76
2023/01/02 03:01:01;;;;;;;38.67;25.05;;;;;;;5.81;68.83;95951.28;4159932;28;20084;-76
2023/01/02 03:03:16;;;;;;;41.30;25.63;;;;;;;5.78;69.36;95941.94;4160768;28;20057;-76
2023/01/02 03:05:32;;;;;;;40.58;24.65;;;;;;;5.77;68.67;95937.69;4174345;28;20469;-73
2023/01/02 03:07:50;;;;;;;40.78;24.85;;;;;;;5.74;68.88;95932.66;4156430;28;20452;-76
2023/01/02 03:10:01;;;;;;;39.08;23.67;;;;;;;5.83;69.55;95941.63;4170223;28;20132;-75
2023/01/02 03:12:14;;;;;;;39.53;25.70;;;;;;;5.80;69.63;95931.44;4162952;28;20144;-74
2023/01/02 03:14:22;;;;;;;42.67;25.55;;;;;;;5.79;69.04;95935.00;4163090;28;20060;-75
2023/01/02 03:16:32;;;;;;;42.55;27.77;;;;;;;5.72;68.79;95935.38;4164737;28;20084;-75
2023/01/02 03:18:57;;;;;;;43.72;27.70;;;;;;;5.67;68.98;95927.03;4153816;28;20137;-74
2023/01/02 03:21:08;;;;;;;42.15;25.83;;;;;;;5.58;69.45;95932.00;4163680;28;20091;-75
2023/01/02 03:23:19;;;;;;;46.55;27.17;;;;;;;5.54;69.38;95929.56;4145169;28;20049;-75
2023/01/02 03:25:21;;;;;;;41.60;27.30;;;;;;;5.49;69.31;95936.84;4162913;28;20057;-73
2023/01/02 03:27:26;;;;;;;43.17;26.23;;;;;;;5.43;69.77;95941.59;4163815;28;20053;-76
2023/01/02 03:29:54;;;;;;;45.05;28.08;;;;;;;5.40;70.03;95941.78;4160618;28;20064;-74
2023/01/02 03:31:57;;;;;;;45.63;27.70;;;;;;;5.33;69.89;95943.94;4160609;28;20115;-78
2023/01/02 03:34:03;;;;;;;49.03;30.63;;;;;;;5.33;69.84;95937.00;4158141;28;20100;-74
2023/01/02 03:36:09;;;;;;;52.38;30.67;;;;;;;5.26;70.21;95940.06;4150618;28;20057;-76
2023/01/02 03:38:21;;;;;;;52.05;30.13;;;;;;;5.26;70.19;95945.25;4153933;28;20041;-74
2023/01/02 03:40:30;;;;;;;50.42;32.70;;;;;;;5.22;70.01;95952.41;4177116;28;20481;-75
2023/01/02 03:42:49;;;;;;;59.67;35.20;;;;;;;5.08;70.87;95952.44;4154065;28;20643;-73
2023/01/02 03:44:54;;;;;;;65.22;39.90;;;;;;;4.93;71.78;95957.63;4165144;28;20061;-75
2023/01/02 03:47:23;;;;;;;81.03;49.75;;;;;;;4.74;73.06;95959.69;4176183;28;20069;-73
2023/01/02 03:49:31;;;;;;;77.85;48.35;;;;;;;4.58;73.46;95959.78;4154080;28;20144;-75
2023/01/02 03:51:34;;;;;;;76.68;46.38;;;;;;;4.68;74.08;95967.84;4158942;28;20076;-72
2023/01/02 03:53:38;;;;;;;63.10;41.40;;;;;;;4.81;73.38;95965.34;4159357;28;20136;-75
2023/01/02 03:55:42;;;;;;;67.18;41.45;;;;;;;4.62;72.90;95968.19;4160133;28;20053;-74
2023/01/02 03:57:49;;;;;;;68.10;41.63;;;;;;;4.43;73.94;95973.63;4160203;28;20053;-74
2023/01/02 04:00:02;;;;;;;38.63;24.63;;;;;;;4.18;74.93;95982.03;4161284;28;20455;-75
2023/01/02 04:02:10;;;;;;;34.95;21.05;;;;;;;4.18;75.59;95980.25;4177199;28;20076;-76
2023/01/02 04:04:51;;;;;;;44.97;25.63;;;;;;;4.32;75.04;95961.28;4160034;28;20119;-73
2023/01/02 04:06:57;;;;;;;43.25;27.08;;;;;;;4.51;74.47;95969.66;4153364;28;20138;-76
2023/01/02 04:09:20;;;;;;;43.72;28.52;;;;;;;4.70;74.14;95973.78;4159602;28;20057;-74
2023/01/02 04:11:24;;;;;;;40.08;26.33;;;;;;;4.87;73.11;95968.38;4175714;28;20484;-74
2023/01/02 04:13:34;;;;;;;41.60;25.42;;;;;;;5.04;72.07;95966.53;4178339;28;20068;-74
2023/01/02 04:15:37;;;;;;;45.00;28.25;;;;;;;5.12;71.86;95972.94;4159799;28;20473;-74
2023/01/02 04:17:49;;;;;;;39.55;26.83;;;;;;;5.19;71.00;95975.16;4159333;28;20064;-76
2023/01/02 04:19:57;;;;;;;38.70;25.23;;;;;;;5.26;70.67;95979.84;4160025;28;20096;-74
2023/01/02 04:22:05;;;;;;;35.90;24.02;;;;;;;5.31;70.52;95975.22;4176818;28;20392;-72
2023/01/02 04:24:12;;;;;;;37.72;22.90;;;;;;;5.25;70.14;95975.59;4177406;28;20088;-76
2023/01/02 04:26:19;;;;;;;39.22;23.25;;;;;;;5.27;70.02;95978.09;4159234;28;20049;-73
2023/01/02 04:28:26;;;;;;;37.92;25.05;;;;;;;5.32;70.05;95981.25;4177886;28;20159;-74
2023/01/02 04:30:29;;;;;;;40.22;24.00;;;;;;;5.29;69.78;95982.28;4160214;28;20480;-75
2023/01/02 04:32:36;;;;;;;36.70;24.58;;;;;;;5.30;69.69;95985.72;4176738;28;20468;-73
2023/01/02 04:34:39;;;;;;;36.80;24.45;;;;;;;5.30;69.50;95983.94;4174762;28;20057;-77
2023/01/02 04:36:41;;;;;;;37.95;23.58;;;;;;;5.23;70.29;95982.66;4167767;28;20085;-74
2023/01/02 04:38:44;;;;;;;38.88;24.02;;;;;;;5.23;70.31;95987.84;4173040;28;20083;-75
2023/01/02 04:40:46;;;;;;;41.67;25.40;;;;;;;5.27;70.23;95997.13;4145032;28;20053;-75
2023/01/02 04:42:48;;;;;;;43.80;26.73;;;;;;;5.22;69.85;95993.97;4177013;28;20290;-76
2023/01/02 04:44:50;;;;;;;42.53;25.85;;;;;;;5.26;69.79;96002.41;4177530;28;20057;-74
2023/01/02 04:46:51;;;;;;;45.40;27.55;;;;;;;5.24;69.45;95993.88;4176424;28;20060;-74
2023/01/02 04:48:54;;;;;;;42.38;27.83;;;;;;;5.23;69.57;95990.47;4164882;28;20447;-75
2023/01/02 04:50:56;;;;;;;43.90;26.60;;;;;;;5.24;69.61;95984.31;4175712;28;20045;-74
2023/01/02 04:52:57;;;;;;;44.28;27.17;;;;;;;5.16;69.62;95986.53;4167007;28;20057;-73
2023/01/02 04:54:59;;;;;;;44.42;26.70;;;;;;;5.09;69.28;95985.25;4163833;28;20132;-72
2023/01/02 04:57:01;;;;;;;39.20;26.38;;;;;;;5.12;70.22;95985.09;4162038;28;20096;-74
2023/01/02 04:59:03;;;;;;;42.25;27.35;;;;;;;5.15;69.61;95990.09;4161959;28;20149;-76
2023/01/02 05:01:13;;;;;;;45.65;26.73;;;;;;;5.12;69.54;95982.50;4161419;28;20519;-74
2023/01/02 05:03:15;;;;;;;46.13;27.38;;;;;;;5.10;70.09;95981.75;4162362;28;20053;-73
2023/01/02 05:05:17;;;;;;;46.50;28.17;;;;;;;5.16;70.16;95988.31;4166734;28;20057;-75
2023/01/02 05:07:19;;;;;;;43.83;27.35;;;;;;;5.16;69.32;95985.72;4175730;28;20049;-74
2023/01/02 05:09:21;;;;;;;48.83;27.50;;;;;;;5.12;69.97;95985.09;4175451;28;20057;-75
2023/01/02 05:11:22;;;;;;;42.70;27.60;;;;;;;5.06;69.90;95983.69;4176449;28;20484;-74
2023/01/02 05:13:24;;;;;;;42.33;26.85;;;;;;;5.08;70.26;95986.22;4177276;28;20048;-76
2023/01/02 05:15:26;;;;;;;42.15;26.85;;;;;;;5.06;70.60;95988.88;4177172;28;20705;-73
2023/01/02 05:17:28;;;;;;;41.00;26.70;;;;;;;5.08;70.27;95988.81;4158638;28;20053;-74
2023/01/02 05:19:30;;;;;;;41.05;25.77;;;;;;;5.12;69.99;95982.50;4175777;28;20072;-75
2023/01/02 05:23:52;;;;;;;42.63;26.20;;;;;;;5.15;69.87;95981.47;4160761;28;20529;-75
2023/01/02 05:25:54;;;;;;;46.42;29.15;;;;;;;5.11;69.83;95980.81;4176750;28;20145;-75
2023/01/02 05:27:56;;;;;;;46.70;28.23;;;;;;;5.15;69.38;95974.50;4176986;28;20467;-76
2023/01/02 05:29:58;;;;;;;41.97;26.85;;;;;;;5.11;70.38;95973.84;4175852;28;20532;-73
2023/01/02 05:31:59;;;;;;;44.67;28.65;;;;;;;5.15;69.80;95979.69;4175584;28;20421;-75
2023/01/02 05:34:01;;;;;;;49.13;29.92;;;;;;;5.13;70.12;95977.19;4174906;28;20057;-76
2023/01/02 05:36:07;;;;;;;50.85;30.20;;;;;;;5.16;69.55;95983.94;4177250;28;20060;-73
2023/01/02 05:38:08;;;;;;;46.03;29.42;;;;;;;5.11;70.20;95973.84;4175660;28;20460;-75
2023/01/02 05:40:10;;;;;;;43.00;29.08;;;;;;;5.10;70.23;95968.75;4176327;28;20053;-76
2023/01/02 05:42:12;;;;;;;46.63;29.45;;;;;;;5.12;70.38;95972.94;4173440;28;20085;-75
2023/01/02 05:44:14;;;;;;;43.22;28.35;;;;;;;5.11;70.11;95978.22;4175312;28;20061;-72
2023/01/02 05:46:17;;;;;;;41.80;27.50;;;;;;;5.05;70.31;95975.97;4176326;28;20083;-74
2023/01/02 05:48:19;;;;;;;47.83;29.52;;;;;;;5.00;70.35;95983.22;4164996;28;20045;-73
2023/01/02 05:50:21;;;;;;;43.50;28.95;;;;;;;4.97;70.94;95983.41;4177897;28;20389;-74
2023/01/02 05:52:23;;;;;;;42.83;29.48;;;;;;;4.81;70.60;95983.50;4177796;28;20057;-77
2023/01/02 05:54:25;;;;;;;51.55;30.60;;;;;;;4.39;71.60;95983.38;4167712;28;20092;-75
2023/01/02 05:56:28;;;;;;;49.65;30.35;;;;;;;4.22;72.46;95983.53;4172917;28;20063;-77
2023/01/02 05:58:32;;;;;;;55.90;34.97;;;;;;;4.22;72.58;95989.53;4176584;28;20049;-75
2023/01/02 06:00:34;;;;;;;57.78;37.05;;;;;;;4.17;73.67;95990.72;4158446;28;20057;-75
2023/01/02 06:02:35;;;;;;;54.17;35.88;;;;;;;4.23;73.04;96000.75;4176156;28;20459;-75
2023/01/02 06:04:37;;;;;;;66.03;39.67;;;;;;;4.21;73.30;96000.81;4175898;28;20140;-75
2023/01/02 06:06:39;;;;;;;76.35;48.33;;;;;;;4.22;73.89;95986.94;4175640;28;20053;-76
2023/01/02 06:08:41;;;;;;;75.30;42.03;;;;;;;4.42;73.34;95998.75;4168743;28;20053;-77
2023/01/02 06:10:49;;;;;;;63.40;39.55;;;;;;;4.53;73.04;95998.13;4168616;28;20048;-74
2023/01/02 06:12:51;;;;;;;67.05;43.25;;;;;;;4.64;71.90;95998.31;4163430;28;20107;-75
2023/01/02 06:14:52;;;;;;;64.95;40.22;;;;;;;4.80;72.18;96003.44;4160427;28;20053;-75
2023/01/02 06:16:54;;;;;;;67.28;41.50;;;;;;;4.78;71.19;96007.91;4160113;28;20080;-76
2023/01/02 06:18:56;;;;;;;70.20;40.20;;;;;;;4.38;71.52;96020.59;4160141;28;20108;-72
2023/01/02 06:20:59;;;;;;;64.80;37.45;;;;;;;4.16;72.25;96021.00;4161337;28;20053;-76
2023/01/02 06:23:00;;;;;;;83.97;51.60;;;;;;;3.84;73.46;96017.66;4172217;28;20056;-73
2023/01/02 06:25:02;;;;;;;99.63;54.63;;;;;;;3.66;73.91;96022.09;4167600;28;20132;-75
2023/01/02 06:27:04;;;;;;;99.53;59.22;;;;;;;3.67;74.08;96023.75;4158038;28;20049;-74
2023/01/02 06:29:06;;;;;;;89.10;52.40;;;;;;;3.94;73.92;96024.00;4161998;28;20304;-77
2023/01/02 06:31:10;;;;;;;92.10;52.63;;;;;;;4.17;73.57;96027.84;4142866;28;20061;-76
2023/01/02 06:33:12;;;;;;;101.43;60.70;;;;;;;3.93;72.52;96024.91;4163568;28;20053;-74
2023/01/02 06:35:14;;;;;;;98.43;57.72;;;;;;;3.96;73.00;96008.31;4142923;28;20135;-77
2023/01/02 06:37:15;;;;;;;96.50;55.83;;;;;;;4.14;73.18;96016.84;4163030;28;20095;-76
2023/01/02 06:39:17;;;;;;;93.60;56.50;;;;;;;4.31;72.03;96020.13;4175859;28;20076;-74
2023/01/02 06:41:19;;;;;;;99.90;55.85;;;;;;;4.46;71.82;96013.22;4176508;28;20057;-75
2023/01/02 06:43:21;;;;;;;86.05;52.38;;;;;;;4.70;71.36;96015.31;4174488;28;20538;-73
2023/01/02 06:45:22;;;;;;;90.75;54.10;;;;;;;4.80;70.29;96019.03;4175841;28;20136;-75
2023/01/02 06:47:24;;;;;;;81.82;51.50;;;;;;;4.91;70.35;96013.19;4175323;28;20053;-73
2023/01/02 06:49:26;;;;;;;80.97;49.88;;;;;;;4.99;69.91;96016.16;4175520;28;20049;-74
2023/01/02 06:51:28;;;;;;;86.13;52.40;;;;;;;5.07;69.90;96013.09;4176231;28;20415;-76
2023/01/02 06:53:33;;;;;;;92.72;53.55;;;;;;;5.13;68.86;96020.50;4173524;28;20076;-76
2023/01/02 06:55:34;;;;;;;97.97;53.85;;;;;;;5.12;68.75;96022.28;4162878;28;20060;-74
2023/01/02 06:57:36;;;;;;;100.72;56.42;;;;;;;5.15;68.46;96015.25;4173878;28;20049;-76
2023/01/02 06:59:38;;;;;;;101.10;59.75;;;;;;;5.17;68.66;96023.78;4174369;28;20057;-76
2023/01/02 07:01:39;;;;;;;110.50;64.75;;;;;;;5.21;68.82;96023.50;4176905;28;20140;-76
2023/01/02 07:03:42;;;;;;;104.55;60.20;;;;;;;5.24;68.57;96017.25;4178583;28;20057;-75
2023/01/02 07:05:44;;;;;;;102.88;59.60;;;;;;;5.27;68.46;96019.66;4179138;28;20156;-74
2023/01/02 07:07:46;;;;;;;108.95;62.08;;;;;;;5.31;68.63;96010.75;4176605;28;20048;-75
2023/01/02 07:09:48;;;;;;;108.43;61.25;;;;;;;5.35;68.36;96022.63;4164785;28;20058;-76
2023/01/02 07:11:49;;;;;;;101.65;57.85;;;;;;;5.38;67.74;96025.06;4178783;28;20280;-75
2023/01/02 07:13:53;;;;;;;111.03;60.28;;;;;;;5.46;68.37;96020.22;4178933;28;20057;-75
2023/01/02 07:15:54;;;;;;;102.50;59.65;;;;;;;5.45;67.10;96015.94;4160351;28;20127;-76
2023/01/02 07:17:56;;;;;;;118.80;62.80;;;;;;;5.50;67.86;96024.28;4176357;28;20534;-74
2023/01/02 07:19:58;;;;;;;109.80;61.08;;;;;;;5.58;67.77;96026.41;4177790;28;20049;-74
2023/01/02 07:22:03;;;;;;;104.63;58.55;;;;;;;5.59;67.26;96019.44;4177250;28;20063;-76
2023/01/02 07:24:05;;;;;;;98.95;55.42;;;;;;;5.58;66.80;96021.22;4178490;28;20106;-75
2023/01/02 07:26:07;;;;;;;106.50;58.65;;;;;;;5.57;67.27;96019.56;4176842;28;20049;-75
2023/01/02 07:28:09;;;;;;;99.15;56.35;;;;;;;5.61;67.55;96023.59;4176905;28;20166;-75
2023/01/02 07:30:11;;;;;;;100.72;56.30;;;;;;;5.66;66.55;96024.16;4176692;28;20076;-76
2023/01/02 07:32:13;;;;;;;104.43;57.20;;;;;;;5.66;67.05;96025.94;4177710;28;20098;-77
2023/01/02 07:34:15;;;;;;;103.47;53.58;;;;;;;5.69;67.06;96031.75;4176703;28;20444;-76
2023/01/02 07:36:18;;;;;;;108.15;58.38;;;;;;;5.51;67.33;96033.75;4176553;28;20094;-76
2023/01/02 07:38:20;;;;;;;104.65;60.60;;;;;;;5.47;67.56;96036.66;4143886;28;20074;-76
2023/01/02 07:40:21;;;;;;;109.90;60.88;;;;;;;5.53;68.19;96029.28;4178504;28;20061;-75
2023/01/02 07:42:30;;;;;;;116.60;60.92;;;;;;;5.58;67.70;96026.41;4178070;28;20464;-76
2023/01/02 07:44:32;;;;;;;113.22;59.10;;;;;;;5.70;67.50;96019.59;4176353;28;20144;-75
2023/01/02 07:46:34;;;;;;;105.93;59.33;;;;;;;5.75;67.08;96030.56;4179862;28;20128;-77
2023/01/02 07:48:35;;;;;;;103.28;56.83;;;;;;;5.84;66.60;96024.75;4176083;28;20064;-75
2023/01/02 07:50:37;;;;;;;114.75;62.53;;;;;;;5.93;66.46;96028.53;4176968;28;20054;-77
2023/01/02 07:52:41;;;;;;;111.55;60.58;;;;;;;6.01;66.48;96031.53;4178052;28;20434;-75
2023/01/02 07:54:43;;;;;;;107.40;60.03;;;;;;;6.06;66.44;96028.63;4148944;28;20429;-76
2023/01/02 07:56:45;;;;;;;109.43;61.28;;;;;;;6.15;66.10;96034.09;4161276;28;20122;-74
2023/01/02 07:58:47;;;;;;;111.72;62.60;;;;;;;6.09;66.34;96036.25;4159891;28;20049;-77
2023/01/02 08:00:49;;;;;;;111.20;62.17;;;;;;;6.12;66.42;96039.47;4176230;28;20412;-75
2023/01/02 08:02:53;;;;;;;122.25;64.60;;;;;;;6.22;66.62;96038.88;4176253;28;20159;-74
2023/01/02 08:04:55;;;;;;;117.05;63.42;;;;;;;6.28;66.02;96038.47;4174740;28;20072;-77
2023/01/02 08:06:57;;;;;;;115.25;62.17;;;;;;;6.42;65.74;96048.81;4176343;28;20095;-77
2023/01/02 08:08:59;;;;;;;110.40;60.67;;;;;;;6.57;65.86;96034.78;4177761;28;20068;-75
2023/01/02 08:11:12;;;;;;;115.90;63.05;;;;;;;6.64;65.07;96024.78;4176160;28;20146;-76
2023/01/02 08:13:13;;;;;;;118.97;63.08;;;;;;;6.71;65.30;96031.28;4175387;28;20053;-76
2023/01/02 08:15:15;;;;;;;116.68;62.85;;;;;;;6.82;64.87;96029.72;4178352;28;20091;-75
2023/01/02 08:17:17;;;;;;;118.35;63.35;;;;;;;6.98;64.22;96023.34;4175474;28;20079;-77
2023/01/02 08:19:19;;;;;;;103.25;59.63;;;;;;;7.09;63.97;96025.22;4175790;28;20458;-77
2023/01/02 08:21:22;;;;;;;103.72;60.80;;;;;;;7.21;64.51;96022.75;4176429;28;20390;-77
2023/01/02 08:23:24;;;;;;;113.40;59.00;;;;;;;7.32;63.73;96018.44;4177303;28;20057;-77
2023/01/02 08:25:26;;;;;;;109.20;58.58;;;;;;;7.32;63.30;96026.25;4175635;28;20132;-77
2023/01/02 08:27:28;;;;;;;106.28;58.63;;;;;;;7.43;64.13;96020.28;4158359;28;20096;-74
2023/01/02 08:29:30;;;;;;;111.38;60.45;;;;;;;7.56;63.16;96012.44;4176389;28;20060;-75
2023/01/02 08:31:31;;;;;;;114.18;61.30;;;;;;;7.66;63.22;96017.84;4175934;28;20428;-78
2023/01/02 08:33:34;;;;;;;124.20;62.13;;;;;;;7.77;62.80;96010.94;4175837;28;20141;-77
2023/01/02 08:35:35;;;;;;;110.50;60.00;;;;;;;7.80;61.88;96013.31;4175989;28;20067;-77
2023/01/02 08:37:39;;;;;;;102.72;58.47;;;;;;;7.90;63.05;96015.28;4176565;28;20443;-76
2023/01/02 08:39:47;;;;;;;99.40;56.83;;;;;;;7.93;62.25;96012.44;4158680;28;20111;-73
2023/01/02 08:41:48;;;;;;;94.55;52.83;;;;;;;7.88;62.28;96015.38;4176290;28;20483;-75
2023/01/02 08:43:50;;;;;;;95.13;52.58;;;;;;;7.95;63.53;96020.97;4175988;28;20044;-75
2023/01/02 08:45:53;;;;;;;86.72;50.47;;;;;;;8.09;63.31;96009.56;4175923;28;20485;-74
2023/01/02 08:47:55;;;;;;;90.93;51.83;;;;;;;8.29;63.33;96010.72;4176784;28;20478;-74
2023/01/02 08:49:56;;;;;;;97.72;52.22;;;;;;;8.39;61.24;96007.31;4175546;28;20075;-76
2023/01/02 08:51:58;;;;;;;92.03;53.60;;;;;;;8.56;62.16;96003.47;4174858;28;20384;-75
2023/01/02 08:54:00;;;;;;;96.45;51.55;;;;;;;8.66;61.50;96008.81;4167501;28;20075;-77
2023/01/02 08:56:22;;;;;;;89.03;53.55;;;;;;;8.77;61.31;96005.41;4177254;28;20556;-76
2023/01/02 08:58:24;;;;;;;94.93;52.08;;;;;;;8.84;61.48;96000.53;4164961;28;20065;-75
2023/01/02 09:00:25;;;;;;;92.10;51.25;;;;;;;8.95;60.02;96004.03;4171816;28;20064;-74
2023/01/02 09:02:27;;;;;;;85.80;50.40;;;;;;;9.05;60.58;95992.84;4161304;28;20079;-75
2023/01/02 09:04:29;;;;;;;87.80;51.80;;;;;;;9.14;59.66;95986.91;4176699;28;20420;-76
2023/01/02 09:06:32;;;;;;;87.25;49.92;;;;;;;9.30;59.85;95984.78;4168555;28;20052;-76
2023/01/02 09:08:34;;;;;;;76.67;47.27;;;;;;;9.39;59.45;95978.00;4175870;28;20056;-75
2023/01/02 09:10:35;;;;;;;86.07;50.20;;;;;;;9.50;59.78;95977.16;4176158;28;20480;-75
2023/01/02 09:12:37;;;;;;;82.03;48.72;;;;;;;9.59;59.23;95976.41;4177031;28;20142;-74
2023/01/02 09:14:39;;;;;;;71.25;45.03;;;;;;;9.66;59.75;95976.75;4175898;28;20484;-78
2023/01/02 09:16:41;;;;;;;80.78;47.15;;;;;;;9.71;58.61;95970.22;4175930;28;20048;-75
2023/01/02 09:18:42;;;;;;;80.78;46.08;;;;;;;9.72;59.22;95966.66;4175791;28;20049;-75
2023/01/02 09:20:44;;;;;;;76.45;45.10;;;;;;;9.47;59.16;95965.16;4176983;28;20419;-78
2023/01/02 09:22:46;;;;;;;74.07;45.38;;;;;;;9.57;59.25;95963.47;4175034;28;20118;-75
2023/01/02 09:24:48;;;;;;;76.45;43.03;;;;;;;9.40;58.22;95966.59;4176683;28;20045;-75
2023/01/02 09:26:50;;;;;;;67.25;40.92;;;;;;;9.24;58.98;95964.34;4176718;28;20063;-75
2023/01/02 09:28:51;;;;;;;62.78;39.83;;;;;;;9.04;60.30;95959.84;4176883;28;20322;-76
2023/01/02 09:30:54;;;;;;;64.57;39.92;;;;;;;9.07;60.14;95959.59;4163878;28;20066;-75
2023/01/02 09:32:56;;;;;;;67.82;37.00;;;;;;;9.21;60.32;95941.88;4169637;28;20099;-76
2023/01/02 09:34:57;;;;;;;62.50;38.05;;;;;;;9.46;59.97;95950.41;4170497;28;20052;-75
2023/01/02 09:36:59;;;;;;;61.38;35.58;;;;;;;9.60;59.00;95939.69;4163658;28;20611;-74
2023/01/02 09:39:01;;;;;;;61.70;37.28;;;;;;;9.66;59.18;95937.50;4163552;28;20049;-77
2023/01/02 09:41:25;;;;;;;63.30;36.83;;;;;;;9.73;59.09;95941.31;4176426;28;20072;-74